Time;durP1;ratioP1;P1;durP2;ratioP2;P2;SDS_P1;SDS_P2;PMS_P1;PMS_P2;Temp;Humidity;BMP_temperature;BMP_pressure;BME280_temperature;BME280_humidity;BME280_pressure;Samples;Min_cycle;Max_cycle;Signal;HPM_P1;HPM_P2
2021/12/09 00:00:01;;;;;;;;;;;1.00;99.90;;;;;;5053214;28;19913;-77
2021/12/09 00:02:29;;;;;;;;;;;1.00;99.90;;;;;;5052923;28;19915;-77
2021/12/09 00:04:56;;;;;;;;;;;1.00;99.90;;;;;;5050866;28;19913;-77
2021/12/09 00:07:22;;;;;;;;;;;0.90;99.90;;;;;;5053316;28;20423;-77
2021/12/09 00:09:48;;;;;;;;;;;0.90;99.90;;;;;;5053421;28;19909;-77
2021/12/09 00:12:14;;;;;;;;;;;0.80;99.90;;;;;;5051729;28;19909;-77
2021/12/09 00:14:39;;;;;;;;;;;0.80;99.90;;;;;;5052497;28;20099;-77
2021/12/09 00:17:06;;;;;;;;;;;0.80;99.90;;;;;;5048262;28;20427;-77
2021/12/09 00:19:33;;;;;;;;;;;0.80;99.90;;;;;;5051777;28;19970;-77
2021/12/09 00:21:59;;;;;;;;;;;0.80;99.90;;;;;;5051594;28;19963;-77
2021/12/09 00:24:25;;;;;;;;;;;0.80;99.90;;;;;;5051234;28;19913;-77
2021/12/09 00:26:50;;;;;;;;;;;0.70;99.90;;;;;;5053074;28;20316;-77
2021/12/09 00:29:17;;;;;;;;;;;0.80;99.90;;;;;;5052836;28;19916;-76
2021/12/09 00:31:43;;;;;;;;;;;0.80;99.90;;;;;;5052316;28;19909;-76
2021/12/09 00:34:09;;;;;;;;;;;0.70;99.90;;;;;;5051002;28;19913;-76
2021/12/09 00:36:42;;;;;;;;;;;0.70;99.90;;;;;;5052530;28;19991;-76
2021/12/09 00:39:08;;;;;;;;;;;0.70;99.90;;;;;;5045339;28;20352;-76
2021/12/09 00:41:34;;;;;;;;;;;0.70;99.90;;;;;;5052707;28;19912;-76
2021/12/09 00:44:00;;;;;;;;;;;0.80;99.90;;;;;;5050930;28;19915;-76
2021/12/09 00:46:25;;;;;;;;;;;0.80;99.90;;;;;;5042354;28;20350;-76
2021/12/09 00:48:51;;;;;;;;;;;0.80;99.90;;;;;;5050839;28;19913;-76
2021/12/09 00:51:16;;;;;;;;;;;0.80;99.90;;;;;;5052138;28;19932;-76
2021/12/09 00:53:42;;;;;;;;;;;0.80;99.90;;;;;;5050696;28;19916;-76
2021/12/09 00:56:09;;;;;;;;;;;0.70;99.90;;;;;;5052562;28;19935;-77
2021/12/09 00:58:36;;;;;;;;;;;0.80;99.90;;;;;;5052030;28;20301;-76
2021/12/09 01:01:02;;;;;;;;;;;0.80;99.90;;;;;;5051688;28;19915;-77
2021/12/09 01:03:27;;;;;;;;;;;0.80;99.90;;;;;;5051591;28;20437;-76
2021/12/09 01:05:54;;;;;;;;;;;0.80;99.90;;;;;;5052054;28;20003;-77
2021/12/09 01:08:19;;;;;;;;;;;0.80;99.90;;;;;;5050443;28;20381;-76
2021/12/09 01:10:45;;;;;;;;;;;0.80;99.90;;;;;;5051876;28;19920;-76
2021/12/09 01:13:12;;;;;;;;;;;0.80;99.90;;;;;;5051359;28;19963;-77
2021/12/09 01:15:38;;;;;;;;;;;0.90;99.90;;;;;;5046024;28;19917;-76
2021/12/09 01:18:04;;;;;;;;;;;0.90;99.90;;;;;;5051495;28;19916;-76
2021/12/09 01:20:29;;;;;;;;;;;0.90;99.90;;;;;;5051692;28;19912;-76
2021/12/09 01:22:56;;;;;;;;;;;0.90;99.90;;;;;;5050221;28;19916;-76
2021/12/09 01:25:22;;;;;;;;;;;0.80;99.90;;;;;;5051532;28;19991;-76
2021/12/09 01:27:49;;;;;;;;;;;0.80;99.90;;;;;;5050193;28;19917;-76
2021/12/09 01:30:17;;;;;;;;;;;0.70;99.90;;;;;;5049988;28;20039;-76
2021/12/09 01:32:49;;;;;;;;;;;0.80;99.90;;;;;;5051493;28;19916;-76
2021/12/09 01:35:15;;;;;;;;;;;0.80;99.90;;;;;;5051251;28;19974;-76
2021/12/09 01:37:41;;;;;;;;;;;0.80;99.90;;;;;;5050100;28;19909;-76
2021/12/09 01:40:08;;;;;;;;;;;0.80;99.90;;;;;;5050569;28;22233;-76
2021/12/09 01:42:34;;;;;;;;;;;0.80;99.90;;;;;;5051008;28;19909;-76
2021/12/09 01:45:00;;;;;;;;;;;0.70;99.90;;;;;;5049453;28;20281;-76
2021/12/09 01:47:25;;;;;;;;;;;0.80;99.90;;;;;;5047858;28;19908;-77
2021/12/09 01:49:51;;;;;;;;;;;0.80;99.90;;;;;;5051164;28;19909;-76
2021/12/09 01:52:16;;;;;;;;;;;0.70;99.90;;;;;;5051110;28;19908;-76
2021/12/09 01:54:42;;;;;;;;;;;0.80;99.90;;;;;;5050858;28;19912;-76
2021/12/09 01:57:07;;;;;;;;;;;0.80;99.90;;;;;;5051192;28;19955;-76
2021/12/09 01:59:33;;;;;;;;;;;0.70;99.90;;;;;;5049525;28;19913;-76
2021/12/09 02:01:59;;;;;;;;;;;0.70;99.90;;;;;;5051142;28;19996;-76
2021/12/09 02:04:25;;;;;;;;;;;0.70;99.90;;;;;;5050742;28;19948;-76
2021/12/09 02:06:51;;;;;;;;;;;0.70;99.90;;;;;;5051158;28;20001;-76
2021/12/09 02:09:17;;;;;;;;;;;0.70;99.90;;;;;;5049806;28;19909;-76
2021/12/09 02:11:43;;;;;;;;;;;0.70;99.90;;;;;;5050918;28;20012;-77
2021/12/09 02:14:09;;;;;;;;;;;0.80;99.90;;;;;;5050602;28;20355;-77
2021/12/09 02:16:34;;;;;;;;;;;0.80;99.90;;;;;;5047781;28;19919;-76
2021/12/09 02:19:01;;;;;;;;;;;0.80;99.90;;;;;;5049367;28;20007;-76
2021/12/09 02:21:28;;;;;;;;;;;0.80;99.90;;;;;;5049668;28;20008;-76
2021/12/09 02:23:55;;;;;;;;;;;0.80;99.90;;;;;;5050736;28;19909;-76
2021/12/09 02:26:23;;;;;;;;;;;0.80;99.90;;;;;;5049433;28;19909;-76
2021/12/09 02:28:49;;;;;;;;;;;0.80;99.90;;;;;;5052575;28;19924;-76
2021/12/09 02:31:14;;;;;;;;;;;0.90;99.90;;;;;;5054801;28;19909;-76
2021/12/09 02:33:40;;;;;;;;;;;0.90;99.90;;;;;;5054442;28;20285;-76
2021/12/09 02:36:05;;;;;;;;;;;1.00;99.90;;;;;;5053341;28;20285;-76
2021/12/09 02:38:31;;;;;;;;;;;1.00;99.90;;;;;;5053303;28;19958;-76
2021/12/09 02:40:58;;;;;;;;;;;1.10;99.90;;;;;;5053179;28;20347;-76
2021/12/09 02:43:25;;;;;;;;;;;1.10;99.90;;;;;;5054347;28;20357;-76
2021/12/09 02:45:52;;;;;;;;;;;1.20;99.90;;;;;;5048950;28;19978;-76
2021/12/09 02:48:19;;;;;;;;;;;1.20;99.90;;;;;;5054241;28;20255;-76
2021/12/09 02:50:45;;;;;;;;;;;1.20;99.90;;;;;;5054393;28;20399;-76
2021/12/09 02:53:11;;;;;;;;;;;1.30;99.90;;;;;;5054034;28;19909;-77
2021/12/09 02:55:37;;;;;;;;;;;1.30;99.90;;;;;;5054237;28;19915;-77
2021/12/09 02:58:03;;;;;;;;;;;1.30;99.90;;;;;;5052937;28;19931;-77
2021/12/09 03:00:29;;;;;;;;;;;1.40;99.90;;;;;;5054071;28;19975;-77
2021/12/09 03:02:57;;;;;;;;;;;1.50;99.90;;;;;;5054275;28;19913;-77
2021/12/09 03:05:22;;;;;;;;;;;1.60;99.90;;;;;;5054100;28;19909;-77
2021/12/09 03:07:48;;;;;;;;;;;1.50;99.90;;;;;;5054073;28;19974;-76
2021/12/09 03:10:20;;;;;;;;;;;1.60;99.90;;;;;;5052669;28;19909;-77
2021/12/09 03:12:50;;;;;;;;;;;1.50;99.90;;;;;;5053789;28;19909;-77
2021/12/09 03:15:16;;;;;;;;;;;1.60;99.90;;;;;;5052150;28;20384;-77
2021/12/09 03:17:43;;;;;;;;;;;1.60;99.90;;;;;;5052390;28;19912;-77
2021/12/09 03:20:10;;;;;;;;;;;1.50;99.90;;;;;;5053694;28;19936;-77
2021/12/09 03:22:35;;;;;;;;;;;1.50;99.90;;;;;;5052406;28;19913;-77
2021/12/09 03:25:02;;;;;;;;;;;1.60;99.90;;;;;;5052144;28;20362;-77
2021/12/09 03:27:28;;;;;;;;;;;1.60;99.90;;;;;;5052237;28;20293;-77
2021/12/09 03:29:53;;;;;;;;;;;1.60;99.90;;;;;;5053562;28;19909;-77
2021/12/09 03:32:19;;;;;;;;;;;1.60;99.90;;;;;;5052431;28;19909;-77
2021/12/09 03:34:46;;;;;;;;;;;1.50;99.90;;;;;;5052120;28;19912;-77
2021/12/09 03:37:17;;;;;;;;;;;1.60;99.90;;;;;;5053437;28;19908;-77
2021/12/09 03:39:43;;;;;;;;;;;1.50;99.90;;;;;;5052291;28;20001;-77
2021/12/09 03:42:10;;;;;;;;;;;1.50;99.90;;;;;;5051805;28;20409;-77
2021/12/09 03:44:36;;;;;;;;;;;1.50;99.90;;;;;;5052971;28;19940;-77
2021/12/09 03:47:04;;;;;;;;;;;1.50;99.90;;;;;;5051461;28;20003;-77
2021/12/09 03:49:30;;;;;;;;;;;1.40;99.90;;;;;;5053333;28;19916;-77
2021/12/09 03:51:56;;;;;;;;;;;1.40;99.90;;;;;;5053231;28;19909;-77
2021/12/09 03:54:22;;;;;;;;;;;1.40;99.90;;;;;;5051524;28;19909;-77
2021/12/09 03:56:48;;;;;;;;;;;1.40;99.90;;;;;;5053102;28;19976;-77
2021/12/09 03:59:13;;;;;;;;;;;1.40;99.90;;;;;;5051881;28;19913;-77
2021/12/09 04:01:40;;;;;;;;;;;1.40;99.90;;;;;;5051812;28;19915;-77
2021/12/09 04:04:06;;;;;;;;;;;1.40;99.90;;;;;;5051538;28;19912;-77
2021/12/09 04:06:31;;;;;;;;;;;1.40;99.90;;;;;;5053267;28;19915;-77
2021/12/09 04:08:58;;;;;;;;;;;1.40;99.90;;;;;;5051854;28;19916;-77
2021/12/09 04:11:24;;;;;;;;;;;1.30;99.90;;;;;;5052861;28;19916;-77
2021/12/09 04:13:49;;;;;;;;;;;1.10;99.90;;;;;;5052671;28;20374;-77
2021/12/09 04:16:15;;;;;;;;;;;0.90;99.90;;;;;;5048619;28;19924;-77
2021/12/09 04:18:41;;;;;;;;;;;0.80;99.90;;;;;;5052518;28;19920;-77
2021/12/09 04:21:07;;;;;;;;;;;0.60;99.90;;;;;;5052409;28;19908;-77
2021/12/09 04:23:33;;;;;;;;;;;0.60;99.90;;;;;;5052355;28;19913;-76
2021/12/09 04:25:59;;;;;;;;;;;0.60;99.90;;;;;;5051217;28;19916;-77
2021/12/09 04:28:24;;;;;;;;;;;0.70;99.90;;;;;;5052388;28;19920;-77
2021/12/09 04:30:50;;;;;;;;;;;0.80;99.90;;;;;;5051130;28;19909;-76
2021/12/09 04:33:16;;;;;;;;;;;0.90;99.90;;;;;;5052168;28;20020;-77
2021/12/09 04:35:42;;;;;;;;;;;0.80;99.90;;;;;;5052219;28;19909;-77
2021/12/09 04:38:07;;;;;;;;;;;0.80;99.90;;;;;;5052486;28;19916;-76
2021/12/09 04:40:33;;;;;;;;;;;0.70;99.90;;;;;;5052207;28;20399;-76
2021/12/09 04:43:00;;;;;;;;;;;0.80;99.90;;;;;;5050545;28;20232;-76
2021/12/09 04:45:26;;;;;;;;;;;0.80;99.90;;;;;;5050817;28;20384;-76
2021/12/09 04:47:52;;;;;;;;;;;0.90;99.90;;;;;;5050592;28;20425;-76
2021/12/09 04:50:17;;;;;;;;;;;0.90;99.90;;;;;;5051934;28;20026;-77
2021/12/09 04:52:43;;;;;;;;;;;0.90;99.90;;;;;;5051598;28;19913;-77
2021/12/09 04:55:09;;;;;;;;;;;1.00;99.90;;;;;;5050403;28;19909;-77
2021/12/09 04:57:34;;;;;;;;;;;1.00;99.90;;;;;;5052040;28;19944;-77
2021/12/09 05:00:00;;;;;;;;;;;1.00;99.90;;;;;;5050539;28;20285;-77
2021/12/09 05:02:43;;;;;;;;;;;1.00;99.90;;;;;;5050674;28;19915;-77
2021/12/09 05:05:10;;;;;;;;;;;1.00;99.90;;;;;;5050437;28;20293;-77
2021/12/09 05:07:35;;;;;;;;;;;0.90;99.90;;;;;;5050559;28;20506;-76
2021/12/09 05:10:01;;;;;;;;;;;0.80;99.90;;;;;;5051681;28;20003;-77
2021/12/09 05:12:27;;;;;;;;;;;0.90;99.90;;;;;;5050424;28;19913;-77
2021/12/09 05:14:52;;;;;;;;;;;0.90;99.90;;;;;;5051156;28;19909;-77
2021/12/09 05:17:18;;;;;;;;;;;0.80;99.90;;;;;;5051323;28;19909;-77
2021/12/09 05:19:44;;;;;;;;;;;0.80;99.90;;;;;;5050106;28;19952;-77
2021/12/09 05:22:09;;;;;;;;;;;0.80;99.90;;;;;;5051737;28;19986;-77
2021/12/09 05:24:36;;;;;;;;;;;0.80;99.90;;;;;;5053874;28;19968;-77
2021/12/09 05:27:02;;;;;;;;;;;0.80;99.90;;;;;;5074633;28;19921;-76
2021/12/09 05:29:33;;;;;;;;;;;0.80;99.90;;;;;;5082650;28;19920;-76
2021/12/09 05:32:08;;;;;;;;;;;0.80;99.90;;;;;;5038620;28;19909;-77
2021/12/09 05:34:44;;;;;;;;;;;0.90;99.90;;;;;;5034639;28;19913;-77
2021/12/09 05:37:14;;;;;;;;;;;0.90;99.90;;;;;;5043483;28;19909;-76
2021/12/09 05:39:40;;;;;;;;;;;1.00;99.90;;;;;;5051320;28;20012;-76
2021/12/09 05:42:06;;;;;;;;;;;1.00;99.90;;;;;;5050042;28;19944;-76
2021/12/09 05:44:32;;;;;;;;;;;1.00;99.90;;;;;;5051156;28;19916;-76
2021/12/09 05:46:58;;;;;;;;;;;1.00;99.90;;;;;;5045167;28;19909;-77
2021/12/09 05:49:23;;;;;;;;;;;0.90;99.90;;;;;;5050033;28;19991;-76
2021/12/09 05:51:49;;;;;;;;;;;1.00;99.90;;;;;;5051348;28;19951;-76
2021/12/09 05:54:15;;;;;;;;;;;1.00;99.90;;;;;;5050887;28;19920;-77
2021/12/09 05:56:41;;;;;;;;;;;0.90;99.90;;;;;;5051433;28;19995;-77
2021/12/09 05:59:07;;;;;;;;;;;0.90;99.90;;;;;;5049741;28;20008;-76
2021/12/09 06:01:33;;;;;;;;;;;0.90;99.90;;;;;;5049808;28;19909;-76
2021/12/09 06:03:59;;;;;;;;;;;0.80;99.90;;;;;;5052754;28;19955;-76
2021/12/09 06:06:24;;;;;;;;;;;0.80;99.90;;;;;;5055441;28;19913;-77
2021/12/09 06:08:50;;;;;;;;;;;0.80;99.90;;;;;;5048407;28;20034;-77
2021/12/09 06:11:16;;;;;;;;;;;0.80;99.90;;;;;;5054322;28;19991;-77
2021/12/09 06:13:41;;;;;;;;;;;0.80;99.90;;;;;;5054794;28;19919;-77
2021/12/09 06:16:07;;;;;;;;;;;0.90;99.90;;;;;;5050520;28;19944;-77
2021/12/09 06:18:33;;;;;;;;;;;0.90;99.90;;;;;;5045961;28;19966;-77
2021/12/09 06:20:58;;;;;;;;;;;0.90;99.90;;;;;;5053819;28;19988;-76
2021/12/09 06:23:24;;;;;;;;;;;0.90;99.90;;;;;;5053350;28;20013;-77
2021/12/09 06:25:50;;;;;;;;;;;1.00;99.90;;;;;;5053675;28;19912;-76
2021/12/09 06:28:16;;;;;;;;;;;0.90;99.90;;;;;;5053550;28;19991;-77
2021/12/09 06:30:41;;;;;;;;;;;1.00;99.90;;;;;;5054950;28;19944;-77
2021/12/09 06:33:07;;;;;;;;;;;1.00;99.90;;;;;;5054622;28;19948;-77
2021/12/09 06:35:33;;;;;;;;;;;1.00;99.90;;;;;;5054981;28;19908;-77
2021/12/09 06:38:00;;;;;;;;;;;1.10;99.90;;;;;;5054628;28;19909;-77
2021/12/09 06:40:26;;;;;;;;;;;1.10;99.90;;;;;;5053491;28;19923;-77
2021/12/09 06:42:52;;;;;;;;;;;1.00;99.90;;;;;;5053564;28;20284;-77
2021/12/09 06:45:18;;;;;;;;;;;1.00;99.90;;;;;;5051290;28;19955;-77
2021/12/09 06:47:44;;;;;;;;;;;1.00;99.90;;;;;;5054317;28;19944;-77
2021/12/09 06:50:10;;;;;;;;;;;1.00;99.90;;;;;;5055040;28;20332;-77
2021/12/09 06:52:36;;;;;;;;;;;1.00;99.90;;;;;;5055240;28;20026;-77
2021/12/09 06:55:02;;;;;;;;;;;1.00;99.90;;;;;;5054632;28;19962;-77
2021/12/09 06:57:29;;;;;;;;;;;1.00;99.90;;;;;;5054048;28;19916;-77
2021/12/09 06:59:54;;;;;;;;;;;1.00;99.90;;;;;;5052918;28;19917;-77
2021/12/09 07:02:19;;;;;;;;;;;1.00;99.90;;;;;;5052820;28;19984;-77
2021/12/09 07:04:45;;;;;;;;;;;1.00;99.90;;;;;;5051363;28;20228;-77
2021/12/09 07:07:10;;;;;;;;;;;1.00;99.90;;;;;;5048364;28;19939;-77
2021/12/09 07:09:37;;;;;;;;;;;1.00;99.90;;;;;;5046789;28;19910;-76
2021/12/09 07:12:03;;;;;;;;;;;0.90;99.90;;;;;;5052370;28;20369;-77
2021/12/09 07:14:29;;;;;;;;;;;1.00;99.90;;;;;;5051844;28;20301;-77
2021/12/09 07:16:55;;;;;;;;;;;0.90;99.90;;;;;;5048874;28;19925;-77
2021/12/09 07:19:20;;;;;;;;;;;0.90;99.90;;;;;;5052237;28;19913;-76
2021/12/09 07:21:46;;;;;;;;;;;0.90;99.90;;;;;;5052059;28;19915;-77
2021/12/09 07:24:12;;;;;;;;;;;0.90;99.90;;;;;;5052971;28;19916;-77
2021/12/09 07:26:37;;;;;;;;;;;0.80;99.90;;;;;;5053354;28;20399;-76
2021/12/09 07:29:03;;;;;;;;;;;0.80;99.90;;;;;;5053692;28;19932;-77
2021/12/09 07:31:29;;;;;;;;;;;0.90;99.90;;;;;;5053455;28;19992;-77
2021/12/09 07:33:56;;;;;;;;;;;0.80;99.90;;;;;;5040509;28;19935;-77
2021/12/09 07:36:22;;;;;;;;;;;0.80;99.90;;;;;;5056204;28;20332;-77
2021/12/09 07:38:48;;;;;;;;;;;0.80;99.90;;;;;;5052063;28;19919;-77
2021/12/09 07:41:14;;;;;;;;;;;0.80;99.90;;;;;;5046205;28;19988;-76
2021/12/09 07:43:40;;;;;;;;;;;0.90;99.90;;;;;;5049306;28;20301;-76
2021/12/09 07:46:05;;;;;;;;;;;0.90;99.90;;;;;;5048749;28;19913;-76
2021/12/09 07:48:31;;;;;;;;;;;0.90;99.90;;;;;;5049843;28;20277;-75
2021/12/09 07:50:56;;;;;;;;;;;1.00;99.90;;;;;;5051627;28;19944;-76
2021/12/09 07:53:23;;;;;;;;;;;1.00;99.90;;;;;;5046024;28;19963;-76
2021/12/09 07:55:49;;;;;;;;;;;1.10;99.90;;;;;;5044971;28;19966;-76
2021/12/09 07:58:15;;;;;;;;;;;1.10;99.90;;;;;;5045945;28;19967;-77
2021/12/09 08:00:40;;;;;;;;;;;1.10;99.90;;;;;;5051668;28;19956;-77
2021/12/09 08:03:06;;;;;;;;;;;1.10;99.90;;;;;;5048850;28;19948;-77
2021/12/09 08:05:32;;;;;;;;;;;1.10;99.90;;;;;;5041777;28;19909;-76
2021/12/09 08:07:58;;;;;;;;;;;1.10;99.90;;;;;;5049173;28;19909;-76
2021/12/09 08:10:24;;;;;;;;;;;1.20;99.90;;;;;;5047300;28;19984;-76
2021/12/09 08:12:50;;;;;;;;;;;1.20;99.90;;;;;;5047514;28;20160;-77
2021/12/09 08:15:17;;;;;;;;;;;1.30;99.90;;;;;;5045033;28;19909;-76
2021/12/09 08:20:11;;;;;;;;;;;1.30;99.90;;;;;;5050266;28;19917;-74
2021/12/09 08:22:36;;;;;;;;;;;1.40;99.90;;;;;;5050839;28;19965;-76
2021/12/09 08:25:03;;;;;;;;;;;1.30;99.90;;;;;;5048826;28;20348;-77
2021/12/09 08:27:29;;;;;;;;;;;1.40;99.90;;;;;;5050300;28;20392;-77
2021/12/09 08:29:54;;;;;;;;;;;1.50;99.90;;;;;;5048821;28;19916;-76
2021/12/09 08:32:20;;;;;;;;;;;1.60;99.90;;;;;;5046943;28;19913;-76
2021/12/09 08:34:46;;;;;;;;;;;1.60;99.90;;;;;;5046861;28;19909;-78
2021/12/09 08:37:11;;;;;;;;;;;1.60;99.90;;;;;;5044954;28;19971;-77
2021/12/09 08:39:37;;;;;;;;;;;1.70;99.90;;;;;;5053023;28;20365;-77
2021/12/09 08:42:03;;;;;;;;;;;1.70;99.90;;;;;;5052378;28;19916;-77
2021/12/09 08:44:28;;;;;;;;;;;1.70;99.90;;;;;;5047081;28;19908;-76
2021/12/09 08:46:54;;;;;;;;;;;1.70;99.90;;;;;;5045543;28;19940;-77
2021/12/09 08:49:19;;;;;;;;;;;1.80;99.90;;;;;;5047888;28;19909;-77
2021/12/09 08:51:45;;;;;;;;;;;1.80;99.90;;;;;;5048880;28;19917;-77
2021/12/09 08:54:10;;;;;;;;;;;1.90;99.90;;;;;;5051600;28;20455;-76
2021/12/09 08:56:37;;;;;;;;;;;1.90;99.90;;;;;;5048695;28;19909;-77
2021/12/09 08:59:04;;;;;;;;;;;2.00;99.90;;;;;;5052224;28;19973;-77
2021/12/09 09:01:29;;;;;;;;;;;2.10;99.90;;;;;;5047175;28;20039;-77
2021/12/09 09:03:55;;;;;;;;;;;2.00;99.90;;;;;;5052752;28;19970;-76
2021/12/09 09:06:20;;;;;;;;;;;2.10;99.90;;;;;;5053413;28;19909;-77
2021/12/09 09:08:50;;;;;;;;;;;2.20;99.90;;;;;;5053994;28;20439;-77
2021/12/09 09:11:15;;;;;;;;;;;2.30;99.90;;;;;;5053834;28;19952;-76
2021/12/09 09:13:41;;;;;;;;;;;2.30;99.90;;;;;;5051731;28;19955;-77
2021/12/09 09:16:07;;;;;;;;;;;2.40;99.90;;;;;;5051376;28;20181;-77
2021/12/09 09:18:33;;;;;;;;;;;2.40;99.90;;;;;;5052666;28;19909;-77
2021/12/09 09:20:58;;;;;;;;;;;2.50;99.90;;;;;;5052141;28;19912;-77
2021/12/09 09:23:24;;;;;;;;;;;2.70;99.90;;;;;;5050948;28;19913;-76
2021/12/09 09:25:50;;;;;;;;;;;2.80;99.90;;;;;;5052829;28;19909;-76
2021/12/09 09:28:16;;;;;;;;;;;2.90;99.90;;;;;;5052679;28;19920;-76
2021/12/09 09:30:47;;;;;;;;;;;2.90;99.90;;;;;;5052698;28;19916;-76
2021/12/09 09:33:14;;;;;;;;;;;3.00;99.90;;;;;;5044571;28;19995;-77
2021/12/09 09:35:40;;;;;;;;;;;3.10;99.90;;;;;;5049932;28;19909;-77
2021/12/09 09:38:06;;;;;;;;;;;3.40;99.90;;;;;;5048593;28;19944;-77
2021/12/09 09:40:38;;;;;;;;;;;3.50;99.90;;;;;;5049065;28;19979;-76
2021/12/09 09:43:13;;;;;;;;;;;3.40;99.90;;;;;;5049130;28;19909;-76
2021/12/09 09:45:39;;;;;;;;;;;3.60;99.90;;;;;;5041201;28;19916;-76
2021/12/09 09:48:07;;;;;;;;;;;3.50;99.90;;;;;;5048554;28;19916;-77
2021/12/09 09:50:33;;;;;;;;;;;3.40;99.90;;;;;;5047730;28;20326;-77
2021/12/09 09:52:59;;;;;;;;;;;3.30;99.90;;;;;;5047946;28;19948;-77
2021/12/09 09:55:24;;;;;;;;;;;3.40;99.90;;;;;;5049393;28;19908;-76
2021/12/09 09:57:50;;;;;;;;;;;3.40;99.90;;;;;;5047135;28;20343;-77
2021/12/09 10:00:16;;;;;;;;;;;3.30;99.90;;;;;;5049279;28;19967;-76
2021/12/09 10:02:43;;;;;;;;;;;3.20;99.90;;;;;;5043741;28;19909;-77
2021/12/09 10:05:09;;;;;;;;;;;3.20;99.90;;;;;;5049752;28;19909;-76
2021/12/09 10:07:35;;;;;;;;;;;3.10;99.90;;;;;;5045978;28;19913;-76
2021/12/09 10:10:03;;;;;;;;;;;3.30;99.90;;;;;;5048669;28;19987;-77
2021/12/09 10:12:28;;;;;;;;;;;3.20;99.90;;;;;;5049793;28;19936;-76
2021/12/09 10:14:54;;;;;;;;;;;3.20;99.90;;;;;;5039018;28;19960;-77
2021/12/09 10:17:21;;;;;;;;;;;3.20;99.90;;;;;;5041264;28;19915;-77
2021/12/09 10:19:47;;;;;;;;;;;3.20;99.90;;;;;;5041670;28;19913;-75
2021/12/09 10:22:16;;;;;;;;;;;3.30;99.90;;;;;;5046973;28;19919;-75
2021/12/09 10:24:45;;;;;;;;;;;3.30;99.90;;;;;;5049692;28;19909;-77
2021/12/09 10:27:18;;;;;;;;;;;3.30;99.90;;;;;;5051021;28;19916;-77
2021/12/09 10:29:46;;;;;;;;;;;3.40;99.90;;;;;;5043006;28;19916;-76
2021/12/09 10:32:17;;;;;;;;;;;3.30;99.90;;;;;;5047835;28;19909;-77
2021/12/09 10:34:45;;;;;;;;;;;3.40;99.90;;;;;;5051030;28;20414;-76
2021/12/09 10:37:20;;;;;;;;;;;3.30;99.90;;;;;;5050674;28;19909;-76
2021/12/09 10:39:51;;;;;;;;;;;3.40;99.90;;;;;;5048456;28;19921;-76
2021/12/09 10:42:22;;;;;;;;;;;3.40;99.90;;;;;;5060238;28;19908;-77
2021/12/09 10:44:50;;;;;;;;;;;3.70;99.90;;;;;;5049661;28;19908;-76
2021/12/09 10:47:36;;;;;;;;;;;3.60;99.90;;;;;;5044469;28;19909;-76
2021/12/09 10:50:19;;;;;;;;;;;3.50;99.90;;;;;;5043587;28;19996;-76
2021/12/09 10:52:49;;;;;;;;;;;3.40;99.90;;;;;;5054520;28;20389;-77
2021/12/09 10:55:35;;;;;;;;;;;3.40;99.90;;;;;;5047385;28;19913;-76
2021/12/09 10:58:04;;;;;;;;;;;3.50;99.90;;;;;;5047408;28;19916;-76
2021/12/09 11:00:31;;;;;;;;;;;3.50;99.90;;;;;;5052635;28;19921;-76
2021/12/09 11:03:03;;;;;;;;;;;3.60;99.90;;;;;;5049791;28;19987;-76
2021/12/09 11:05:29;;;;;;;;;;;3.70;99.90;;;;;;5053998;28;19913;-76
2021/12/09 11:08:10;;;;;;;;;;;3.60;99.90;;;;;;5049055;28;19909;-76
2021/12/09 11:10:44;;;;;;;;;;;3.60;99.90;;;;;;5045504;28;19915;-75
2021/12/09 11:13:10;;;;;;;;;;;3.60;99.90;;;;;;5054647;28;20309;-77
2021/12/09 11:15:55;;;;;;;;;;;3.60;99.90;;;;;;5049894;28;19909;-76
2021/12/09 11:18:35;;;;;;;;;;;3.70;99.90;;;;;;5046753;28;19909;-77
2021/12/09 11:21:04;;;;;;;;;;;3.70;99.90;;;;;;5049154;28;19967;-76
2021/12/09 11:23:34;;;;;;;;;;;3.90;99.90;;;;;;5050410;28;19912;-77
2021/12/09 11:26:18;;;;;;;;;;;3.90;99.90;;;;;;5048537;28;19909;-77
2021/12/09 11:28:54;;;;;;;;;;;3.70;99.90;;;;;;5049344;28;20476;-77
2021/12/09 11:31:19;;;;;;;;;;;3.90;99.90;;;;;;5034456;28;19954;-77
2021/12/09 11:33:46;;;;;;;;;;;3.90;99.90;;;;;;5039209;28;19913;-77
2021/12/09 11:36:17;;;;;;;;;;;4.10;99.90;;;;;;5047601;28;19909;-78
2021/12/09 11:39:06;;;;;;;;;;;4.10;99.90;;;;;;5049047;28;20058;-76
2021/12/09 11:41:35;;;;;;;;;;;4.00;99.90;;;;;;5051799;28;19916;-78
2021/12/09 11:44:00;;;;;;;;;;;4.10;99.90;;;;;;5049145;28;20365;-78
2021/12/09 11:46:26;;;;;;;;;;;4.10;99.90;;;;;;5046189;28;20013;-78
2021/12/09 11:48:51;;;;;;;;;;;4.20;99.90;;;;;;5048253;28;19913;-78
2021/12/09 11:51:17;;;;;;;;;;;4.30;99.90;;;;;;5048893;28;19956;-77
2021/12/09 11:53:44;;;;;;;;;;;4.70;99.90;;;;;;5045230;28;19955;-78
2021/12/09 11:59:24;;;;;;;;;;;4.50;99.90;;;;;;5053468;28;19909;-78
2021/12/09 12:13:43;;;;;;;;;;;4.10;99.90;;;;;;5049973;28;19916;-77
2021/12/09 12:16:35;;;;;;;;;;;4.10;99.90;;;;;;5064693;28;19909;-77
2021/12/09 12:19:10;;;;;;;;;;;3.90;99.90;;;;;;5047247;28;19913;-78
2021/12/09 12:29:56;;;;;;;;;;;3.30;99.90;;;;;;5054003;28;19970;-77
2021/12/09 12:32:59;;;;;;;;;;;3.30;99.90;;;;;;5040409;28;19913;-78
2021/12/09 12:38:08;;;;;;;;;;;3.50;99.90;;;;;;5049798;28;19916;-78
2021/12/09 12:40:41;;;;;;;;;;;3.40;99.90;;;;;;5047004;28;19952;-78
2021/12/09 12:43:11;;;;;;;;;;;3.50;99.90;;;;;;5057125;28;19909;-78
2021/12/09 12:45:55;;;;;;;;;;;3.50;99.90;;;;;;5057971;28;19948;-78
2021/12/09 12:51:27;;;;;;;;;;;3.60;99.90;;;;;;5055692;28;19995;-78
2021/12/09 12:53:57;;;;;;;;;;;3.60;99.90;;;;;;5040627;28;19916;-77
2021/12/09 12:56:24;;;;;;;;;;;3.70;99.90;;;;;;5048122;28;19913;-78
2021/12/09 12:59:11;;;;;;;;;;;3.70;99.90;;;;;;5057172;28;19913;-77
2021/12/09 13:01:49;;;;;;;;;;;3.60;99.90;;;;;;5046686;28;19991;-76
2021/12/09 13:07:28;;;;;;;;;;;3.60;99.90;;;;;;5050582;28;19971;-78
2021/12/09 13:10:18;;;;;;;;;;;3.40;99.90;;;;;;5048520;28;19913;-78
2021/12/09 13:12:55;;;;;;;;;;;3.30;99.90;;;;;;5052804;28;20262;-78
2021/12/09 13:15:25;;;;;;;;;;;3.40;99.90;;;;;;5055313;28;19909;-78
2021/12/09 13:18:05;;;;;;;;;;;3.40;99.90;;;;;;5056957;28;19963;-76
2021/12/09 13:20:35;;;;;;;;;;;3.60;99.90;;;;;;5056106;28;19919;-78
2021/12/09 13:23:19;;;;;;;;;;;3.60;99.90;;;;;;5057167;28;19909;-78
2021/12/09 13:26:03;;;;;;;;;;;3.70;99.90;;;;;;5057208;28;19908;-78
2021/12/09 13:28:37;;;;;;;;;;;3.60;99.90;;;;;;5055963;28;19924;-78
2021/12/09 13:31:11;;;;;;;;;;;3.40;99.90;;;;;;5057014;28;19909;-78
2021/12/09 13:36:49;;;;;;;;;;;3.40;99.90;;;;;;5045197;28;19913;-78
2021/12/09 13:39:54;;;;;;;;;;;3.30;99.90;;;;;;5054756;28;19913;-78
2021/12/09 13:47:54;;;;;;;;;;;3.10;99.90;;;;;;5057222;28;19970;-78
2021/12/09 13:55:35;;;;;;;;;;;3.00;99.90;;;;;;5052816;28;19999;-77
2021/12/09 13:58:03;;;;;;;;;;;2.90;99.90;;;;;;5046918;28;19972;-78
2021/12/09 14:00:32;;;;;;;;;;;2.90;99.90;;;;;;5048985;28;19913;-78
2021/12/09 14:03:00;;;;;;;;;;;3.00;99.90;;;;;;5045929;28;20350;-76
2021/12/09 14:05:36;;;;;;;;;;;3.20;99.90;;;;;;5054634;28;20102;-75
2021/12/09 14:08:06;;;;;;;;;;;3.10;99.90;;;;;;5043565;28;19909;-78
2021/12/09 14:10:35;;;;;;;;;;;2.90;99.90;;;;;;5053465;28;19908;-78
2021/12/09 14:13:05;;;;;;;;;;;2.70;99.90;;;;;;5051645;28;19908;-78
2021/12/09 14:16:35;;;;;;;;;;;2.60;99.90;;;;;;5040671;28;19972;-77
2021/12/09 14:18:24;;;;;;;;;;;2.70;99.90;;;;;;5046196;28;19909;-78
2021/12/09 14:20:50;;;;;;;;;;;2.90;99.90;;;;;;5047951;28;19958;-78
2021/12/09 14:23:16;;;;;;;;;;;2.90;99.90;;;;;;5051511;28;19912;-78
2021/12/09 14:25:42;;;;;;;;;;;2.90;99.90;;;;;;5052800;28;20265;-78
2021/12/09 14:28:12;;;;;;;;;;;2.90;99.90;;;;;;5056991;28;19967;-78
2021/12/09 14:30:37;;;;;;;;;;;2.90;99.90;;;;;;5050462;28;20008;-78
2021/12/09 14:33:03;;;;;;;;;;;2.90;99.90;;;;;;5047241;28;20346;-76
2021/12/09 14:35:31;;;;;;;;;;;2.80;99.90;;;;;;5054145;28;19909;-78
2021/12/09 14:37:57;;;;;;;;;;;2.80;99.90;;;;;;5050237;28;20172;-77
2021/12/09 14:40:26;;;;;;;;;;;2.80;99.90;;;;;;5053361;28;20055;-78
2021/12/09 14:42:56;;;;;;;;;;;2.80;99.90;;;;;;5041308;28;20367;-78
2021/12/09 14:45:23;;;;;;;;;;;2.80;99.90;;;;;;5052649;28;19909;-78
2021/12/09 14:48:00;;;;;;;;;;;2.80;99.90;;;;;;5054295;28;20546;-78
2021/12/09 14:50:46;;;;;;;;;;;2.80;99.90;;;;;;5047826;28;19985;-77
2021/12/09 14:53:26;;;;;;;;;;;2.70;99.90;;;;;;5052626;28;19987;-76
2021/12/09 14:55:51;;;;;;;;;;;2.70;99.90;;;;;;5056525;28;19910;-77
2021/12/09 14:58:21;;;;;;;;;;;2.70;99.90;;;;;;5051153;28;19970;-78
2021/12/09 15:00:49;;;;;;;;;;;2.60;99.90;;;;;;5049426;28;19923;-78
2021/12/09 15:03:17;;;;;;;;;;;2.60;99.90;;;;;;5048809;28;19909;-78
2021/12/09 15:05:43;;;;;;;;;;;2.50;99.90;;;;;;5051023;28;19909;-77
2021/12/09 15:08:11;;;;;;;;;;;2.40;99.90;;;;;;5043987;28;19913;-77
2021/12/09 15:10:36;;;;;;;;;;;2.30;99.90;;;;;;5052901;28;20309;-77
2021/12/09 15:13:04;;;;;;;;;;;2.30;99.90;;;;;;5051913;28;19909;-77
2021/12/09 15:15:31;;;;;;;;;;;2.20;99.90;;;;;;5055345;28;19935;-78
2021/12/09 15:18:01;;;;;;;;;;;2.20;99.90;;;;;;5057318;28;19909;-78
2021/12/09 15:20:34;;;;;;;;;;;2.20;99.90;;;;;;5057150;28;19913;-77
2021/12/09 15:23:08;;;;;;;;;;;2.30;99.90;;;;;;5055673;28;19920;-78